FRA50 EGHH-EGNV
Flight info
| Callsign | FRA50 |
|---|---|
| Flight time | N/A |
| Altitude | 33000 |
| Route | SAM Q41 SILVA UM605 DTY UY250 RIMTO |
| Aircraft | CL60/M-SBDE1E2E3FGHIJ1J4J5J7M3RWXYZ/LB1V1D1 |
Departure
| Time | N/A |
|---|---|
| Airport | Bournemouth Airport (EGHH) |
Arrival
| Time | 2026-05-05 17:28 |
|---|---|
| Airport | Teesside International Airport (EGNV) |
| Time | Latitude | Longitude | Altitude | Speed | Heading |
|---|---|---|---|---|---|
| 2026-05-05 17:10 | 53.26774 | -1.23347 | 27696 ft | 409 kts | 347° |
| 2026-05-05 17:11 | 53.29526 | -1.24200 | 27152 ft | 405 kts | 347° |
| 2026-05-05 17:11 | 53.32279 | -1.25054 | 26628 ft | 400 kts | 347° |
| 2026-05-05 17:11 | 53.34961 | -1.25887 | 26106 ft | 395 kts | 347° |
| 2026-05-05 17:11 | 53.37652 | -1.26724 | 25575 ft | 391 kts | 347° |
| 2026-05-05 17:12 | 53.40293 | -1.27547 | 25079 ft | 386 kts | 347° |
| 2026-05-05 17:12 | 53.42933 | -1.28167 | 24565 ft | 384 kts | 353° |
| 2026-05-05 17:12 | 53.45575 | -1.28491 | 24061 ft | 380 kts | 353° |
| 2026-05-05 17:12 | 53.48166 | -1.28804 | 23558 ft | 377 kts | 353° |
| 2026-05-05 17:13 | 53.50761 | -1.29120 | 23069 ft | 373 kts | 353° |
| 2026-05-05 17:13 | 53.53326 | -1.29433 | 22576 ft | 368 kts | 353° |
| 2026-05-05 17:13 | 53.55852 | -1.29741 | 22093 ft | 363 kts | 353° |
| 2026-05-05 17:13 | 53.58346 | -1.30285 | 21613 ft | 355 kts | 342° |
| 2026-05-05 17:14 | 53.60558 | -1.31926 | 21143 ft | 344 kts | 327° |
| 2026-05-05 17:14 | 53.62592 | -1.33990 | 20680 ft | 340 kts | 326° |
| 2026-05-05 17:14 | 53.64580 | -1.35999 | 20239 ft | 335 kts | 326° |
| 2026-05-05 17:14 | 53.66582 | -1.38021 | 19785 ft | 331 kts | 326° |
| 2026-05-05 17:15 | 53.68529 | -1.39991 | 19357 ft | 326 kts | 326° |
| 2026-05-05 17:15 | 53.70477 | -1.41900 | 18936 ft | 323 kts | 331° |
| 2026-05-05 17:15 | 53.72610 | -1.42995 | 18499 ft | 325 kts | 351° |
| 2026-05-05 17:15 | 53.74844 | -1.42969 | 18057 ft | 325 kts | 1° |
| 2026-05-05 17:16 | 53.77106 | -1.42696 | 17588 ft | 323 kts | 1° |
| 2026-05-05 17:16 | 53.79336 | -1.42440 | 17192 ft | 319 kts | 1° |
| 2026-05-05 17:16 | 53.81522 | -1.42188 | 16757 ft | 316 kts | 1° |
| 2026-05-05 17:16 | 53.83702 | -1.41937 | 16355 ft | 315 kts | 1° |
| 2026-05-05 17:17 | 53.85882 | -1.41686 | 15935 ft | 313 kts | 1° |
| 2026-05-05 17:17 | 53.88050 | -1.41435 | 15522 ft | 311 kts | 1° |
| 2026-05-05 17:17 | 53.90187 | -1.41187 | 15111 ft | 309 kts | 2° |
| 2026-05-05 17:17 | 53.92337 | -1.40938 | 14694 ft | 306 kts | 2° |
| 2026-05-05 17:18 | 53.94444 | -1.40693 | 14296 ft | 304 kts | 2° |
| 2026-05-05 17:18 | 53.96544 | -1.40449 | 13891 ft | 302 kts | 2° |
| 2026-05-05 17:18 | 53.98615 | -1.40207 | 13495 ft | 298 kts | 2° |
| 2026-05-05 17:18 | 54.00661 | -1.39968 | 13116 ft | 296 kts | 2° |
| 2026-05-05 17:19 | 54.02723 | -1.39728 | 12716 ft | 295 kts | 2° |
| 2026-05-05 17:19 | 54.04745 | -1.39491 | 12333 ft | 293 kts | 2° |
| 2026-05-05 17:19 | 54.06706 | -1.39262 | 11953 ft | 291 kts | 2° |
| 2026-05-05 17:19 | 54.08742 | -1.39023 | 11566 ft | 289 kts | 2° |
| 2026-05-05 17:20 | 54.10728 | -1.38790 | 11189 ft | 287 kts | 2° |
| 2026-05-05 17:20 | 54.12656 | -1.38564 | 10824 ft | 284 kts | 2° |
| 2026-05-05 17:20 | 54.14604 | -1.38334 | 10445 ft | 282 kts | 2° |
| 2026-05-05 17:20 | 54.16555 | -1.38105 | 10073 ft | 280 kts | 2° |
| 2026-05-05 17:21 | 54.18507 | -1.37875 | 9700 ft | 278 kts | 2° |
| 2026-05-05 17:21 | 54.20419 | -1.37660 | 9336 ft | 276 kts | 0° |
| 2026-05-05 17:21 | 54.22292 | -1.38133 | 8962 ft | 272 kts | 343° |
| 2026-05-05 17:22 | 54.25854 | -1.40189 | 8212 ft | 269 kts | 341° |
| 2026-05-05 17:22 | 54.27611 | -1.41244 | 7812 ft | 268 kts | 341° |
| 2026-05-05 17:22 | 54.29391 | -1.42325 | 7182 ft | 272 kts | 341° |
| 2026-05-05 17:22 | 54.31157 | -1.43421 | 6528 ft | 269 kts | 341° |
| 2026-05-05 17:23 | 54.32873 | -1.44515 | 5955 ft | 263 kts | 339° |
| 2026-05-05 17:23 | 54.34374 | -1.46253 | 5395 ft | 260 kts | 315° |
| 2026-05-05 17:23 | 54.35485 | -1.48586 | 5025 ft | 254 kts | 311° |
| 2026-05-05 17:23 | 54.36554 | -1.50976 | 4595 ft | 253 kts | 311° |
| 2026-05-05 17:24 | 54.37621 | -1.53403 | 4090 ft | 255 kts | 311° |
| 2026-05-05 17:24 | 54.38699 | -1.55801 | 3540 ft | 250 kts | 318° |
| 2026-05-05 17:24 | 54.40103 | -1.57289 | 3062 ft | 234 kts | 348° |
| 2026-05-05 17:24 | 54.41648 | -1.58006 | 2554 ft | 231 kts | 342° |
| 2026-05-05 17:25 | 54.43104 | -1.58743 | 2395 ft | 208 kts | 2° |
| 2026-05-05 17:25 | 54.44007 | -1.58403 | 2234 ft | 197 kts | 30° |
| 2026-05-05 17:25 | 54.44980 | -1.55936 | 1834 ft | 190 kts | 74° |
| 2026-05-05 17:25 | 54.45268 | -1.53849 | 1621 ft | 167 kts | 64° |
| 2026-05-05 17:26 | 54.45815 | -1.52200 | 1429 ft | 150 kts | 49° |
| 2026-05-05 17:26 | 54.46453 | -1.50982 | 1279 ft | 123 kts | 43° |
| 2026-05-05 17:26 | 54.47058 | -1.49990 | 1118 ft | 119 kts | 41° |
| 2026-05-05 17:26 | 54.47643 | -1.49028 | 898 ft | 114 kts | 42° |
| 2026-05-05 17:27 | 54.48196 | -1.48054 | 725 ft | 115 kts | 44° |
| 2026-05-05 17:27 | 54.48735 | -1.47051 | 586 ft | 115 kts | 45° |
| 2026-05-05 17:27 | 54.49280 | -1.46027 | 438 ft | 116 kts | 44° |
| 2026-05-05 17:27 | 54.49826 | -1.44985 | 285 ft | 116 kts | 43° |
| 2026-05-05 17:28 | 54.50376 | -1.43964 | 140 ft | 114 kts | 43° |
| 2026-05-05 17:28 | 54.50847 | -1.43090 | 121 ft | 84 kts | 46° |
| 2026-05-05 17:28 | 54.51173 | -1.42467 | 120 ft | 57 kts | 47° |
| 2026-05-05 17:28 | 54.51399 | -1.42049 | 120 ft | 39 kts | 47° |
| 2026-05-05 17:29 | 54.51565 | -1.41743 | 120 ft | 21 kts | 45° |
| 2026-05-05 17:29 | 54.51656 | -1.41715 | 120 ft | 14 kts | 357° |
| 2026-05-05 17:29 | 54.51745 | -1.41762 | 120 ft | 15 kts | 320° |
| 2026-05-05 17:29 | 54.51797 | -1.41919 | 120 ft | 16 kts | 275° |
| 2026-05-05 17:30 | 54.51805 | -1.42132 | 120 ft | 19 kts | 274° |
| 2026-05-05 17:30 | 54.51799 | -1.42375 | 120 ft | 22 kts | 250° |
| 2026-05-05 17:30 | 54.51710 | -1.42463 | 120 ft | 16 kts | 191° |
| 2026-05-05 17:30 | 54.51620 | -1.42461 | 120 ft | 12 kts | 155° |
| 2026-05-05 17:31 | 54.51530 | -1.42443 | 120 ft | 15 kts | 197° |
| 2026-05-05 17:31 | 54.51487 | -1.42465 | 120 ft | 3 kts | 245° |
| 2026-05-05 17:31 | 54.51487 | -1.42477 | 120 ft | 0 kts | 282° |